Time;durP1;ratioP1;P1;durP2;ratioP2;P2;SDS_P1;SDS_P2;PMS_P1;PMS_P2;Temp;Humidity;BMP_temperature;BMP_pressure;BME280_temperature;BME280_humidity;BME280_pressure;Samples;Min_cycle;Max_cycle;Signal;HPM_P1;HPM_P2
2022/05/13 00:02:11;;;;;;;11.18;4.85;;;10.10;99.90;;;;;;5091604;28;20052;-49
2022/05/13 00:04:38;;;;;;;9.70;4.47;;;10.10;99.90;;;;;;5081770;28;20148;-51
2022/05/13 00:07:05;;;;;;;6.82;4.80;;;10.10;99.90;;;;;;5061171;28;20392;-48
2022/05/13 00:12:17;;;;;;;7.57;4.05;;;10.10;99.90;;;;;;5090031;28;20064;-48
2022/05/13 00:14:44;;;;;;;9.10;4.30;;;10.10;99.90;;;;;;5062663;28;20055;-49
2022/05/13 00:17:11;;;;;;;10.93;4.57;;;10.10;99.90;;;;;;5081301;28;20048;-48
2022/05/13 00:19:38;;;;;;;8.93;4.05;;;10.10;99.90;;;;;;5068999;28;20052;-51
2022/05/13 00:22:05;;;;;;;8.68;4.38;;;10.10;99.90;;;;;;5068894;28;20052;-50
2022/05/13 00:24:31;;;;;;;8.55;3.80;;;10.20;99.90;;;;;;5066355;28;20040;-52
2022/05/13 00:26:57;;;;;;;7.10;3.72;;;10.20;99.90;;;;;;5064551;28;20059;-58
2022/05/13 00:29:23;;;;;;;7.15;3.60;;;10.20;99.90;;;;;;5077306;28;20063;-58
2022/05/13 00:31:49;;;;;;;6.00;3.92;;;10.30;99.90;;;;;;5073487;28;20052;-58
2022/05/13 00:34:15;;;;;;;11.00;3.80;;;10.30;99.90;;;;;;5057030;28;20067;-58
2022/05/13 00:36:42;;;;;;;11.13;4.28;;;10.40;99.90;;;;;;5076024;28;20059;-58
2022/05/13 00:39:08;;;;;;;8.73;4.20;;;10.40;99.90;;;;;;5064121;28;20067;-58
2022/05/13 00:41:36;;;;;;;8.20;4.40;;;10.40;99.90;;;;;;5080327;28;20073;-58
2022/05/13 00:44:03;;;;;;;8.18;4.25;;;10.50;99.90;;;;;;5053789;28;20800;-58
2022/05/13 00:46:30;;;;;;;10.93;4.70;;;10.60;99.90;;;;;;5044649;28;20385;-58
2022/05/13 00:49:00;;;;;;;6.93;3.60;;;10.60;99.90;;;;;;5069870;28;20061;-58
2022/05/13 00:51:31;;;;;;;7.47;3.92;;;10.60;99.90;;;;;;5054048;28;20107;-60
2022/05/13 00:53:58;;;;;;;9.47;3.90;;;10.60;99.90;;;;;;5086875;28;20483;-58
2022/05/13 00:56:25;;;;;;;8.68;4.63;;;10.70;99.90;;;;;;5094693;28;20095;-58
2022/05/13 00:58:56;;;;;;;10.60;4.40;;;10.70;99.90;;;;;;5067808;28;20052;-58
2022/05/13 01:01:23;;;;;;;12.68;4.90;;;10.80;99.90;;;;;;5065732;28;20086;-58
2022/05/13 01:03:50;;;;;;;7.53;4.13;;;10.80;99.90;;;;;;5080644;28;20725;-58
2022/05/13 01:06:20;;;;;;;6.35;3.75;;;10.80;99.90;;;;;;5089331;28;20542;-58
2022/05/13 01:08:47;;;;;;;5.72;4.03;;;10.80;99.90;;;;;;5075946;28;20078;-58
2022/05/13 01:11:17;;;;;;;8.55;3.97;;;10.80;99.90;;;;;;5063548;28;20087;-58
2022/05/13 01:13:49;;;;;;;9.15;4.32;;;10.80;99.90;;;;;;5084273;28;20056;-58
2022/05/13 01:16:15;;;;;;;7.77;4.27;;;10.90;99.90;;;;;;5090773;28;20773;-58
2022/05/13 01:18:43;;;;;;;9.25;3.70;;;10.90;99.90;;;;;;5083094;28;20511;-58
2022/05/13 01:21:15;;;;;;;7.05;3.65;;;10.90;99.90;;;;;;5074043;28;20413;-58
2022/05/13 01:23:42;;;;;;;;;;;10.90;99.90;;;;;;5078405;28;20054;-58
2022/05/13 01:26:15;;;;;;;7.47;3.83;;;10.90;99.90;;;;;;5082013;28;20734;-58
2022/05/13 01:28:49;;;;;;;7.63;4.20;;;10.90;99.90;;;;;;5081752;28;20605;-49
2022/05/13 01:31:29;;;;;;;7.38;3.50;;;10.90;99.90;;;;;;5069855;28;20064;-52
2022/05/13 01:33:56;;;;;;;8.85;3.95;;;11.00;99.90;;;;;;5083287;28;20594;-52
2022/05/13 01:36:23;;;;;;;7.80;4.07;;;11.00;99.90;;;;;;5079013;28;20076;-57
2022/05/13 01:38:49;;;;;;;6.70;3.50;;;11.00;99.90;;;;;;5080549;28;20051;-52
2022/05/13 01:41:16;;;;;;;8.23;3.78;;;11.10;99.90;;;;;;5084943;28;20513;-51
2022/05/13 01:43:44;;;;;;;9.73;3.38;;;11.10;99.90;;;;;;5084483;28;20123;-58
2022/05/13 01:46:11;;;;;;;12.20;3.70;;;11.10;99.90;;;;;;5076310;28;20052;-57
2022/05/13 01:48:38;;;;;;;6.32;3.67;;;11.10;99.90;;;;;;5070762;28;20056;-58
2022/05/13 01:51:05;;;;;;;5.72;3.25;;;11.10;99.90;;;;;;5065814;28;20065;-57
2022/05/13 01:53:31;;;;;;;9.23;3.58;;;11.10;99.90;;;;;;5093992;28;20060;-58
2022/05/13 01:55:58;;;;;;;7.97;2.80;;;11.20;99.90;;;;;;5074570;28;20120;-57
2022/05/13 01:58:25;;;;;;;7.78;3.38;;;11.20;99.90;;;;;;5077051;28;20040;-58
2022/05/13 02:00:55;;;;;;;7.45;3.45;;;11.20;99.90;;;;;;5066146;28;20459;-57
2022/05/13 02:06:07;;;;;;;8.68;3.40;;;11.20;99.90;;;;;;5072765;28;20054;-58
2022/05/13 02:08:34;;;;;;;7.05;2.92;;;11.20;99.90;;;;;;5075884;28;20053;-58
2022/05/13 02:11:01;;;;;;;6.07;3.42;;;11.20;99.90;;;;;;5094006;27;20056;-57
2022/05/13 02:13:27;;;;;;;13.07;2.97;;;11.30;99.90;;;;;;5076842;28;20048;-57
2022/05/13 02:15:53;;;;;;;12.02;3.58;;;11.30;99.90;;;;;;5089673;28;20084;-58
2022/05/13 02:18:20;;;;;;;9.25;3.72;;;11.30;99.90;;;;;;5067801;28;20059;-57
2022/05/13 02:20:47;;;;;;;7.60;3.10;;;11.20;99.90;;;;;;5090802;28;20052;-57
2022/05/13 02:23:14;;;;;;;9.75;3.53;;;11.30;99.90;;;;;;5091454;28;20051;-57
2022/05/13 02:25:42;;;;;;;9.63;3.58;;;11.30;99.90;;;;;;5071310;28;20164;-58
2022/05/13 02:28:09;;;;;;;8.35;3.42;;;11.30;99.90;;;;;;5084946;28;20134;-57
2022/05/13 02:30:35;;;;;;;8.10;3.40;;;11.30;99.90;;;;;;5073643;28;20110;-57
2022/05/13 02:33:01;;;;;;;8.20;3.50;;;11.20;99.90;;;;;;5084098;28;20119;-57
2022/05/13 02:35:27;;;;;;;8.93;3.38;;;11.30;99.90;;;;;;5077109;28;20058;-58
2022/05/13 02:37:54;;;;;;;6.38;3.08;;;11.30;99.90;;;;;;5079105;28;20051;-58
2022/05/13 02:41:11;;;;;;;8.57;3.85;;;11.20;99.90;;;;;;5080351;28;20165;-57
2022/05/13 02:43:07;;;;;;;8.27;3.85;;;11.20;99.90;;;;;;5082492;28;20040;-58
2022/05/13 02:45:33;;;;;;;8.25;3.70;;;11.20;99.90;;;;;;5091021;28;20440;-58
2022/05/13 02:47:59;;;;;;;8.95;3.60;;;11.20;99.90;;;;;;5074401;28;20044;-58
2022/05/13 02:50:26;;;;;;;9.77;3.08;;;11.20;99.90;;;;;;5056923;28;20105;-58
2022/05/13 02:52:52;;;;;;;6.97;3.28;;;11.10;99.90;;;;;;5086834;28;20481;-50
2022/05/13 02:55:21;;;;;;;14.55;4.85;;;11.10;99.90;;;;;;5080136;28;20040;-47
2022/05/13 02:57:47;;;;;;;8.85;3.30;;;11.00;99.90;;;;;;5074281;28;20059;-48
2022/05/13 03:00:14;;;;;;;9.05;3.53;;;11.00;99.90;;;;;;5081511;28;20048;-49
2022/05/13 03:02:40;;;;;;;10.63;3.90;;;10.90;99.90;;;;;;5081144;28;20470;-46
2022/05/13 03:05:07;;;;;;;8.02;3.70;;;10.90;99.90;;;;;;5094815;28;20594;-47
2022/05/13 03:07:33;;;;;;;9.60;3.70;;;10.90;99.90;;;;;;5064124;28;20052;-57
2022/05/13 03:09:59;;;;;;;11.32;4.55;;;10.90;99.90;;;;;;5060614;28;20261;-58
2022/05/13 03:12:25;;;;;;;7.10;3.42;;;10.80;99.90;;;;;;5064464;28;20056;-58
2022/05/13 03:14:51;;;;;;;9.02;3.67;;;10.90;99.90;;;;;;5083058;28;20136;-46
2022/05/13 03:17:17;;;;;;;7.78;3.80;;;10.90;99.90;;;;;;5083113;28;20052;-48
2022/05/13 03:19:43;;;;;;;12.43;3.58;;;10.90;99.90;;;;;;5081493;28;20056;-47
2022/05/13 03:22:09;;;;;;;8.10;3.17;;;10.90;99.90;;;;;;5076430;28;20118;-51
2022/05/13 03:24:35;;;;;;;10.13;3.95;;;10.90;99.90;;;;;;5091319;28;20046;-51
2022/05/13 03:27:02;;;;;;;9.52;3.55;;;10.90;99.90;;;;;;5081876;28;20688;-58
2022/05/13 03:29:28;;;;;;;7.63;3.42;;;10.90;99.90;;;;;;5080976;28;20044;-58
2022/05/13 03:31:54;;;;;;;11.85;4.03;;;10.90;99.90;;;;;;5083536;28;20139;-58
2022/05/13 03:34:26;;;;;;;11.07;3.90;;;10.90;99.90;;;;;;5083489;28;20083;-58
2022/05/13 03:36:52;;;;;;;11.73;4.38;;;10.90;99.90;;;;;;5063494;28;20840;-58
2022/05/13 03:39:18;;;;;;;10.30;4.40;;;10.90;99.90;;;;;;5063361;28;20053;-58
2022/05/13 03:41:44;;;;;;;10.05;4.00;;;10.90;99.90;;;;;;5081638;28;20105;-58
2022/05/13 03:44:10;;;;;;;12.77;3.78;;;10.90;99.90;;;;;;5077834;28;20491;-58
2022/05/13 03:46:36;;;;;;;12.20;3.88;;;10.90;99.90;;;;;;5065488;28;20998;-48
2022/05/13 03:49:03;;;;;;;11.32;4.20;;;10.90;99.90;;;;;;5098456;28;20048;-50
2022/05/13 03:51:29;;;;;;;10.38;4.68;;;10.90;99.90;;;;;;5082002;28;20307;-50
2022/05/13 03:53:55;;;;;;;7.72;3.80;;;10.90;99.90;;;;;;5049054;28;20063;-51
2022/05/13 03:56:21;;;;;;;9.70;3.97;;;10.90;99.90;;;;;;5079458;28;20059;-50
2022/05/13 03:58:47;;;;;;;10.68;3.97;;;10.90;99.90;;;;;;5064670;28;20452;-49
2022/05/13 04:01:13;;;;;;;11.35;4.03;;;10.90;99.90;;;;;;5088565;28;20059;-48
2022/05/13 04:03:39;;;;;;;10.98;4.97;;;10.90;99.90;;;;;;5082494;28;20122;-49
2022/05/13 04:08:59;;;;;;;8.23;3.42;;;10.80;99.90;;;;;;5091828;28;20183;-58
2022/05/13 04:11:30;;;;;;;12.95;4.93;;;10.90;99.90;;;;;;5048885;28;20496;-58
2022/05/13 04:16:42;;;;;;;7.10;3.25;;;10.90;99.90;;;;;;5073738;28;20036;-58
2022/05/13 04:19:08;;;;;;;8.23;4.22;;;11.00;99.90;;;;;;5082042;28;20044;-58
2022/05/13 04:21:37;;;;;;;10.60;4.40;;;11.00;99.90;;;;;;5070934;28;20080;-58
2022/05/13 04:24:07;;;;;;;18.90;4.47;;;11.00;99.90;;;;;;5073752;28;20039;-58
2022/05/13 04:26:33;;;;;;;15.68;4.82;;;11.10;99.90;;;;;;5094357;28;20500;-58
2022/05/13 04:29:01;;;;;;;14.52;4.32;;;11.10;99.90;;;;;;5068914;28;20064;-58
2022/05/13 04:31:30;;;;;;;13.18;4.25;;;11.10;99.90;;;;;;5075608;28;20049;-58
2022/05/13 04:33:57;;;;;;;10.35;3.97;;;11.10;99.90;;;;;;5063045;28;20562;-58
2022/05/13 04:36:24;;;;;;;10.40;4.00;;;11.20;99.90;;;;;;5077552;28;20076;-58
2022/05/13 04:38:52;;;;;;;13.45;4.88;;;11.20;99.90;;;;;;5071981;28;20048;-57
2022/05/13 04:44:04;;;;;;;12.05;4.65;;;11.20;99.90;;;;;;5066395;28;20144;-58
2022/05/13 04:46:31;;;;;;;14.57;4.90;;;11.30;99.90;;;;;;5083017;28;20388;-49
2022/05/13 04:48:58;;;;;;;14.32;4.25;;;11.30;99.90;;;;;;5079914;28;20580;-58
2022/05/13 04:51:25;;;;;;;10.50;4.60;;;11.30;99.90;;;;;;5080465;28;20048;-58
2022/05/13 04:53:53;;;;;;;13.05;4.55;;;11.30;99.90;;;;;;5083965;28;20051;-47
2022/05/13 04:56:21;;;;;;;15.77;5.15;;;11.30;99.90;;;;;;5064591;28;20106;-52
2022/05/13 04:58:47;;;;;;;10.98;4.50;;;11.30;99.90;;;;;;5071436;28;20071;-58
2022/05/13 05:01:15;;;;;;;13.13;4.45;;;11.30;99.90;;;;;;5084097;28;20049;-58
2022/05/13 05:03:43;;;;;;;15.57;4.55;;;11.30;99.90;;;;;;5066487;28;20131;-59
2022/05/13 05:06:10;;;;;;;12.00;4.38;;;11.30;99.90;;;;;;5067912;28;20169;-58
2022/05/13 05:08:37;;;;;;;12.43;4.28;;;11.30;99.90;;;;;;5078518;28;20526;-52
2022/05/13 05:11:05;;;;;;;13.45;4.78;;;11.40;99.90;;;;;;5065318;28;20147;-58
2022/05/13 05:14:01;;;;;;;14.30;4.43;;;11.40;99.90;;;;;;5065534;28;20055;-50
2022/05/13 05:16:27;;;;;;;16.05;4.93;;;11.40;99.90;;;;;;5060763;28;20108;-48
2022/05/13 05:18:53;;;;;;;14.10;4.88;;;11.40;99.90;;;;;;5093779;28;20131;-58
2022/05/13 05:21:19;;;;;;;18.33;4.93;;;11.50;99.90;;;;;;5081827;28;20048;-57
2022/05/13 05:23:45;;;;;;;15.00;5.05;;;11.60;99.90;;;;;;5065423;28;20055;-50
2022/05/13 05:26:11;;;;;;;15.38;5.88;;;11.60;99.90;;;;;;5068124;28;20119;-57
2022/05/13 05:28:38;;;;;;;11.18;4.85;;;11.70;99.90;;;;;;5073020;28;20067;-57
2022/05/13 05:31:06;;;;;;;11.40;4.55;;;11.70;99.90;;;;;;5067841;28;20568;-57
2022/05/13 05:33:32;;;;;;;15.77;5.00;;;11.70;99.90;;;;;;5065001;28;22301;-57
2022/05/13 05:35:58;;;;;;;16.38;5.53;;;11.80;99.90;;;;;;5069221;28;20098;-59
2022/05/13 05:38:25;;;;;;;14.38;4.97;;;11.80;99.90;;;;;;5065396;28;20500;-50
2022/05/13 05:40:51;;;;;;;15.35;5.68;;;11.80;99.90;;;;;;5048500;28;20496;-48
2022/05/13 05:43:19;;;;;;;17.65;5.43;;;11.80;99.90;;;;;;5073016;28;20128;-51
2022/05/13 05:45:45;;;;;;;12.57;4.82;;;11.90;99.90;;;;;;5079792;28;20385;-50
2022/05/13 05:48:14;;;;;;;20.27;6.13;;;12.20;99.90;;;;;;5075518;28;20628;-50
2022/05/13 05:50:41;;;;;;;13.98;5.00;;;12.60;99.90;;;;;;5084570;28;20519;-50
2022/05/13 05:53:07;;;;;;;14.82;4.78;;;12.80;99.90;;;;;;5100025;28;20163;-50
2022/05/13 05:58:18;;;;;;;17.23;4.90;;;13.50;99.90;;;;;;5096591;28;20055;-49
2022/05/13 06:00:48;;;;;;;16.38;5.25;;;13.70;99.90;;;;;;5074635;28;20090;-47
2022/05/13 06:03:16;;;;;;;10.13;5.03;;;13.90;99.90;;;;;;5101493;28;20047;-51
2022/05/13 06:05:44;;;;;;;18.00;5.13;;;13.90;99.90;;;;;;5083751;28;20051;-50
2022/05/13 06:08:11;;;;;;;15.93;4.78;;;13.90;99.90;;;;;;5079196;28;20091;-46
2022/05/13 06:10:37;;;;;;;14.43;4.55;;;13.90;99.90;;;;;;5072436;28;20631;-50
2022/05/13 06:13:07;;;;;;;11.38;4.25;;;14.00;99.90;;;;;;5073960;28;20075;-52
2022/05/13 06:15:34;;;;;;;17.52;4.45;;;14.10;99.90;;;;;;5073951;28;20521;-51
2022/05/13 06:18:00;;;;;;;14.43;4.07;;;14.20;99.90;;;;;;5091158;28;20040;-49
2022/05/13 06:20:29;;;;;;;13.00;4.43;;;14.30;99.90;;;;;;5079571;28;20062;-49
2022/05/13 06:22:55;;;;;;;13.00;4.47;;;14.40;99.90;;;;;;5069205;28;20123;-49
2022/05/13 06:25:22;;;;;;;11.82;4.25;;;14.30;99.90;;;;;;5091884;28;20044;-47
2022/05/13 06:27:50;;;;;;;13.40;3.85;;;14.30;99.90;;;;;;5078402;28;20044;-51
2022/05/13 06:30:20;;;;;;;14.98;4.57;;;14.40;99.90;;;;;;5074697;28;20499;-49
2022/05/13 06:32:46;;;;;;;12.75;3.65;;;14.30;99.90;;;;;;5079674;28;20062;-50
2022/05/13 06:35:12;;;;;;;14.82;4.22;;;14.30;99.90;;;;;;5076928;28;20486;-48
2022/05/13 06:37:38;;;;;;;11.02;3.67;;;14.30;99.90;;;;;;5083270;28;20593;-49
2022/05/13 06:40:06;;;;;;;14.23;4.00;;;14.20;99.90;;;;;;5080005;28;20052;-50
2022/05/13 06:42:32;;;;;;;10.00;3.30;;;14.20;99.90;;;;;;5064675;28;20055;-46
2022/05/13 06:45:00;;;;;;;10.50;3.35;;;14.20;99.90;;;;;;5065376;28;20052;-47
2022/05/13 06:47:26;;;;;;;10.52;3.63;;;14.20;99.90;;;;;;5063787;28;20080;-50
2022/05/13 06:49:52;;;;;;;11.70;3.40;;;14.30;99.90;;;;;;5075982;28;20048;-46
2022/05/13 06:52:18;;;;;;;9.60;3.35;;;14.30;99.90;;;;;;5071370;28;20056;-46
2022/05/13 06:54:44;;;;;;;12.00;4.18;;;14.30;99.90;;;;;;5075720;28;20063;-49
2022/05/13 06:57:10;;;;;;;10.02;2.92;;;14.30;99.90;;;;;;5097538;28;20083;-50
2022/05/13 06:59:37;;;;;;;10.00;2.90;;;14.30;99.90;;;;;;5076171;28;20189;-58
2022/05/13 07:02:04;;;;;;;7.15;2.20;;;14.40;99.90;;;;;;5073891;28;20047;-57
2022/05/13 07:04:31;;;;;;;10.07;3.03;;;14.40;99.90;;;;;;5082505;28;20052;-47
2022/05/13 07:06:59;;;;;;;8.07;2.05;;;14.60;99.90;;;;;;5080382;28;20047;-50
2022/05/13 07:09:26;;;;;;;8.45;2.42;;;14.50;99.90;;;;;;5091859;28;20488;-49
2022/05/13 07:11:54;;;;;;;6.50;1.85;;;14.60;99.90;;;;;;5065078;28;20832;-49
2022/05/13 07:14:21;;;;;;;8.40;2.05;;;14.60;99.90;;;;;;5083085;28;20044;-49
2022/05/13 07:16:47;;;;;;;8.60;2.17;;;14.60;99.90;;;;;;5083451;28;20160;-50
2022/05/13 07:19:13;;;;;;;7.15;1.67;;;14.80;99.90;;;;;;5083818;28;20051;-47
2022/05/13 07:21:39;;;;;;;12.50;2.50;;;15.10;99.90;;;;;;5100365;28;20047;-47
2022/05/13 07:24:06;;;;;;;11.25;1.98;;;15.20;99.90;;;;;;5055259;28;20049;-50
2022/05/13 07:26:32;;;;;;;8.45;1.63;;;15.10;99.90;;;;;;5082183;28;20069;-47
2022/05/13 07:28:58;;;;;;;10.18;2.20;;;15.30;99.90;;;;;;5077713;28;20043;-52
2022/05/13 07:31:24;;;;;;;6.28;1.92;;;15.10;99.90;;;;;;5083732;28;20048;-49
2022/05/13 07:33:50;;;;;;;5.80;1.67;;;15.10;99.90;;;;;;5062372;28;20044;-50
2022/05/13 07:36:16;;;;;;;9.43;2.20;;;15.10;99.90;;;;;;5070714;28;20058;-60
2022/05/13 07:41:16;;;;;;;7.45;2.20;;;14.90;99.90;;;;;;5093506;28;20040;-47
2022/05/13 07:41:28;;;;;;;8.75;2.20;;;14.80;99.90;;;;;;5082338;28;20058;-50
2022/05/13 07:43:56;;;;;;;12.27;2.45;;;14.70;99.90;;;;;;5076548;28;20044;-51
2022/05/13 07:46:22;;;;;;;6.40;2.10;;;14.70;99.90;;;;;;5078011;28;20052;-50
2022/05/13 07:48:48;;;;;;;5.90;1.77;;;15.20;99.90;;;;;;5080825;28;20127;-48
2022/05/13 07:51:14;;;;;;;5.05;1.67;;;16.00;99.90;;;;;;5063563;28;20055;-47
2022/05/13 07:53:40;;;;;;;10.57;2.42;;;16.60;99.90;;;;;;5081148;28;20048;-49
2022/05/13 07:56:08;;;;;;;7.40;1.55;;;16.40;99.90;;;;;;5077681;28;20101;-45
2022/05/13 07:58:34;;;;;;;6.20;2.55;;;16.70;99.90;;;;;;5064143;28;20052;-47
2022/05/13 08:01:00;;;;;;;7.72;1.88;;;16.60;99.90;;;;;;5081189;28;20800;-48
2022/05/13 08:03:27;;;;;;;4.75;1.63;;;16.80;99.90;;;;;;5048195;28;20044;-49
2022/05/13 08:05:57;;;;;;;7.05;1.48;;;16.70;99.90;;;;;;5060535;28;20044;-49
2022/05/13 08:08:26;;;;;;;6.95;1.40;;;16.80;99.90;;;;;;5081469;28;20048;-48
2022/05/13 08:10:55;;;;;;;8.73;1.60;;;16.80;99.90;;;;;;5095430;28;20040;-47
2022/05/13 08:13:23;;;;;;;7.97;1.60;;;17.20;99.90;;;;;;5064279;28;20490;-58
2022/05/13 08:15:50;;;;;;;6.32;1.95;;;17.20;99.90;;;;;;5080501;28;20052;-58
2022/05/13 08:18:18;;;;;;;6.63;2.00;;;17.10;99.90;;;;;;5076232;28;20449;-58
2022/05/13 08:20:46;;;;;;;6.60;1.80;;;16.70;99.90;;;;;;5078948;28;20040;-58
2022/05/13 08:23:13;;;;;;;8.23;1.90;;;16.30;99.90;;;;;;5079243;28;20040;-59
2022/05/13 08:25:39;;;;;;;6.78;1.50;;;16.20;99.90;;;;;;5082213;28;20044;-58
2022/05/13 08:28:08;;;;;;;7.57;1.50;;;16.20;99.90;;;;;;5080991;28;20048;-58
2022/05/13 08:30:35;;;;;;;8.45;1.95;;;16.60;99.90;;;;;;5082361;28;20151;-58
2022/05/13 08:33:08;;;;;;;7.43;1.95;;;16.60;99.90;;;;;;5047372;28;20097;-58
2022/05/13 08:35:36;;;;;;;6.38;1.60;;;16.90;99.90;;;;;;5079917;28;20044;-58
2022/05/13 08:38:02;;;;;;;7.18;1.63;;;17.00;99.90;;;;;;5060661;28;20052;-49
2022/05/13 08:40:50;;;;;;;6.13;1.48;;;16.60;99.90;;;;;;5096765;28;20060;-47
2022/05/13 08:43:20;;;;;;;8.60;1.50;;;16.40;99.90;;;;;;5063291;28;20846;-48
2022/05/13 08:46:01;;;;;;;5.28;1.73;;;16.40;99.90;;;;;;5079175;28;20515;-48
2022/05/13 08:48:43;;;;;;;7.63;1.60;;;17.00;99.90;;;;;;5078046;28;20851;-50
2022/05/13 08:51:35;;;;;;;5.95;1.70;;;17.50;99.90;;;;;;5082656;28;20098;-49
2022/05/13 08:54:07;;;;;;;;;;;17.50;99.90;;;;;;5086335;28;20516;-51
2022/05/13 08:56:35;;;;;;;7.40;1.85;;;17.10;99.90;;;;;;5079927;28;19915;-51
2022/05/13 08:59:25;;;;;;;5.68;1.67;;;17.10;99.90;;;;;;5097880;28;20047;-47
2022/05/13 09:01:57;;;;;;;4.85;1.20;;;16.60;99.90;;;;;;5076979;28;20044;-45
2022/05/13 09:04:37;;;;;;;4.63;1.27;;;16.70;99.90;;;;;;5078137;28;20044;-50
2022/05/13 09:07:20;;;;;;;4.45;1.63;;;16.70;99.90;;;;;;5078483;28;20040;-58
2022/05/13 09:09:52;;;;;;;4.88;1.25;;;16.60;99.90;;;;;;5096247;28;20043;-49
2022/05/13 09:12:36;;;;;;;5.70;1.77;;;16.50;99.90;;;;;;5047653;28;20052;-57
2022/05/13 09:15:09;;;;;;;6.18;1.27;;;16.50;99.90;;;;;;5082542;28;20083;-58
2022/05/13 09:17:48;;;;;;;6.57;1.30;;;16.60;99.90;;;;;;5085634;28;20453;-49
2022/05/13 09:20:17;;;;;;;6.68;3.00;;;16.70;99.90;;;;;;5089106;28;20048;-51
2022/05/13 09:22:52;;;;;;;6.72;2.88;;;16.80;99.90;;;;;;5084660;28;20740;-47
2022/05/13 09:25:33;;;;;;;7.13;2.75;;;16.90;99.90;;;;;;5086587;28;20058;-58
2022/05/13 09:28:12;;;;;;;4.38;1.50;;;16.80;99.90;;;;;;5097307;28;20047;-48
2022/05/13 09:30:41;;;;;;;6.88;2.15;;;17.40;99.90;;;;;;5069573;28;20072;-58
2022/05/13 09:33:25;;;;;;;7.72;1.42;;;17.20;99.90;;;;;;5084727;28;20048;-58
2022/05/13 09:35:55;;;;;;;3.55;1.08;;;16.80;99.90;;;;;;5085205;28;20143;-48
2022/05/13 09:38:27;;;;;;;5.35;1.75;;;16.90;99.90;;;;;;5084383;28;20044;-48
2022/05/13 09:40:59;;;;;;;7.85;1.50;;;16.80;99.90;;;;;;5085532;28;20123;-58
2022/05/13 09:43:31;;;;;;;;;;;17.00;99.90;;;;;;5085832;28;20056;-51
2022/05/13 09:46:31;;;;;;;8.48;2.15;;;17.10;99.90;;;;;;5083538;28;20177;-45
2022/05/13 09:49:10;;;;;;;6.60;2.47;;;17.00;99.90;;;;;;5081558;28;20578;-49
2022/05/13 09:51:40;;;;;;;3.30;1.27;;;17.00;99.90;;;;;;5085586;28;20170;-46
2022/05/13 09:54:21;;;;;;;3.00;1.30;;;17.00;99.90;;;;;;5084119;28;20051;-47
2022/05/13 09:56:53;;;;;;;4.93;1.45;;;16.90;99.90;;;;;;5081923;28;20048;-58
2022/05/13 09:59:25;;;;;;;4.82;1.50;;;16.70;99.90;;;;;;5084711;28;20059;-49
2022/05/13 10:01:52;;;;;;;12.57;2.33;;;16.60;99.90;;;;;;5066738;28;20047;-46
2022/05/13 10:04:22;;;;;;;4.07;1.25;;;16.70;99.90;;;;;;5084975;28;20044;-45
2022/05/13 10:06:49;;;;;;;5.28;1.88;;;16.80;99.90;;;;;;5082291;28;20040;-58
2022/05/13 10:15:31;;;;;;;8.27;1.83;;;18.40;99.90;;;;;;5080181;28;20071;-58
2022/05/13 10:18:09;;;;;;;5.88;1.58;;;19.10;99.90;;;;;;5082505;28;20567;-50
2022/05/13 10:20:40;;;;;;;7.00;1.60;;;19.20;99.90;;;;;;5083363;28;20048;-46
2022/05/13 10:23:26;;;;;;;10.18;2.22;;;18.90;99.90;;;;;;5083538;28;20163;-47
2022/05/13 10:25:59;;;;;;;6.22;1.83;;;18.20;99.90;;;;;;5078102;28;20048;-59
2022/05/13 10:28:54;;;;;;;5.38;1.60;;;18.40;99.90;;;;;;5082315;28;20051;-58
2022/05/13 10:31:25;;;;;;;7.30;1.70;;;18.40;99.90;;;;;;5083896;28;20108;-58
2022/05/13 10:34:13;;;;;;;6.88;2.05;;;17.90;99.90;;;;;;5081592;28;20044;-47
2022/05/13 10:36:47;;;;;;;10.07;1.75;;;18.00;99.90;;;;;;5083884;28;20125;-46
2022/05/13 10:39:22;;;;;;;7.70;1.75;;;18.00;99.90;;;;;;5079870;28;20109;-46
2022/05/13 10:41:57;;;;;;;10.15;2.25;;;17.80;99.90;;;;;;5082692;28;20051;-49
2022/05/13 10:44:26;;;;;;;9.60;2.70;;;17.80;99.90;;;;;;5083989;28;20052;-47
2022/05/13 10:47:00;;;;;;;12.07;1.95;;;18.40;99.90;;;;;;5080321;28;20048;-47
2022/05/13 10:49:41;;;;;;;7.78;1.88;;;18.60;99.90;;;;;;5082832;28;20131;-58
2022/05/13 10:52:13;;;;;;;7.95;1.90;;;19.10;99.90;;;;;;5091355;28;20395;-58
2022/05/13 10:55:01;;;;;;;6.38;1.92;;;18.70;99.90;;;;;;5078228;28;20151;-59
2022/05/13 10:57:30;;;;;;;9.98;1.75;;;18.20;99.90;;;;;;5072034;28;20117;-59
2022/05/13 11:00:18;;;;;;;5.78;1.70;;;18.30;99.90;;;;;;5082513;28;20054;-59
2022/05/13 11:03:15;;;;;;;6.32;1.70;;;18.40;99.90;;;;;;5065481;28;20781;-59
2022/05/13 11:06:22;;;;;;;10.38;2.00;;;18.00;99.90;;;;;;5082972;28;20040;-58
2022/05/13 11:09:01;;;;;;;6.28;1.75;;;17.80;99.90;;;;;;5080867;28;20410;-59
2022/05/13 11:11:40;;;;;;;6.05;2.13;;;17.80;99.90;;;;;;5081476;28;20076;-59
2022/05/13 11:14:21;;;;;;;7.22;1.60;;;17.80;99.90;;;;;;5083204;28;20055;-59
2022/05/13 11:17:21;;;;;;;6.63;1.77;;;17.60;99.90;;;;;;5082093;28;20054;-59
2022/05/13 11:20:03;;;;;;;7.13;1.40;;;17.90;99.90;;;;;;5081955;28;20330;-59
2022/05/13 11:22:36;;;;;;;;;;;18.60;99.90;;;;;;5083826;28;20515;-58
2022/05/13 11:28:32;;;;;;;7.97;1.83;;;18.70;99.90;;;;;;5081572;28;20056;-59
2022/05/13 11:31:09;;;;;;;;;;;18.90;99.90;;;;;;5080700;28;20076;-50
2022/05/13 11:33:54;;;;;;;4.22;1.50;;;18.70;99.90;;;;;;5098354;28;19920;-49
2022/05/13 11:36:36;;;;;;;7.82;1.65;;;18.30;99.90;;;;;;5091757;28;20080;-56
2022/05/13 11:39:28;;;;;;;8.48;1.77;;;18.30;99.90;;;;;;5081620;28;20119;-53
2022/05/13 11:42:09;;;;;;;4.93;1.67;;;18.80;99.90;;;;;;5079562;28;20044;-53
2022/05/13 11:45:12;;;;;;;5.93;1.30;;;18.50;99.90;;;;;;5074628;28;20835;-53
2022/05/13 11:47:59;;;;;;;6.43;1.75;;;18.10;99.90;;;;;;5078421;28;20044;-51
2022/05/13 11:50:30;;;;;;;7.10;1.58;;;18.20;99.90;;;;;;5072657;28;20052;-51
2022/05/13 11:52:59;;;;;;;5.13;1.23;;;18.00;99.90;;;;;;5070137;28;20075;-48
2022/05/13 11:55:47;;;;;;;4.53;1.30;;;17.60;99.90;;;;;;5092468;27;20121;-50
2022/05/13 11:58:45;;;;;;;3.65;1.23;;;17.30;99.90;;;;;;5075554;28;20036;-50
2022/05/13 12:01:12;;;;;;;3.97;1.00;;;17.40;99.90;;;;;;5090552;28;20538;-48
2022/05/13 12:03:39;;;;;;;9.05;2.10;;;17.50;99.90;;;;;;5094771;28;20109;-51
2022/05/13 12:06:10;;;;;;;5.43;1.60;;;17.80;99.90;;;;;;5079078;28;20040;-51
2022/05/13 12:08:57;;;;;;;6.80;1.92;;;17.60;99.90;;;;;;5086668;28;20051;-50
2022/05/13 12:11:47;;;;;;;7.60;1.77;;;17.60;99.90;;;;;;5057568;28;20055;-51
2022/05/13 12:14:20;;;;;;;6.00;1.80;;;17.60;99.90;;;;;;5089034;28;20048;-47
2022/05/13 12:17:17;;;;;;;4.45;1.20;;;18.00;99.90;;;;;;5072696;28;20063;-59
2022/05/13 12:20:10;;;;;;;8.77;1.60;;;18.20;99.90;;;;;;5089719;28;20052;-59
2022/05/13 12:23:08;;;;;;;5.40;1.27;;;18.10;99.90;;;;;;5075960;28;20504;-59
2022/05/13 12:25:34;;;;;;;6.75;1.70;;;18.10;99.90;;;;;;5082728;28;20051;-59
2022/05/13 12:28:03;;;;;;;6.43;1.90;;;18.10;99.90;;;;;;5091463;28;20052;-59
2022/05/13 12:30:34;;;;;;;7.40;1.60;;;17.90;99.90;;;;;;5074403;28;20044;-60
2022/05/13 12:33:19;;;;;;;7.25;2.42;;;17.80;99.90;;;;;;5056962;28;20499;-56
2022/05/13 12:39:18;;;;;;;5.50;1.75;;;18.70;99.90;;;;;;5083918;28;20082;-52
2022/05/13 12:41:44;;;;;;;8.02;1.48;;;19.50;99.90;;;;;;5087149;28;20051;-51
2022/05/13 12:44:14;;;;;;;6.97;1.90;;;20.30;98.40;;;;;;5075662;28;20098;-49
2022/05/13 12:46:46;;;;;;;5.90;2.45;;;20.40;94.70;;;;;;5073893;28;20048;-53
2022/05/13 12:49:24;;;;;;;12.75;2.28;;;20.80;94.50;;;;;;5082903;28;20048;-53
2022/05/13 12:52:02;;;;;;;4.45;1.60;;;20.60;92.40;;;;;;5082958;28;20089;-52
2022/05/13 12:54:33;;;;;;;9.18;2.00;;;20.50;94.30;;;;;;5077209;28;20052;-59
2022/05/13 14:12:50;;;;;;;5.18;2.00;;;19.00;96.50;;;;;;5114432;27;20411;-53
2022/05/13 14:15:18;;;;;;;8.07;1.83;;;19.60;97.10;;;;;;5093139;28;20483;-52
2022/05/13 14:17:54;;;;;;;11.60;2.95;;;20.10;97.10;;;;;;5080994;28;20384;-52
2022/05/13 14:20:40;;;;;;;8.75;2.15;;;19.80;97.10;;;;;;5065125;28;20056;-56
2022/05/13 14:23:10;;;;;;;7.18;2.20;;;20.00;94.90;;;;;;5091656;28;20040;-51
2022/05/13 14:25:41;;;;;;;11.40;1.90;;;20.00;96.90;;;;;;5096518;28;20074;-48
2022/05/13 14:28:10;;;;;;;8.20;2.22;;;20.00;96.50;;;;;;5084533;28;20044;-48
2022/05/13 14:30:38;;;;;;;6.07;1.67;;;19.60;98.10;;;;;;5100321;28;20097;-53
2022/05/13 14:33:05;;;;;;;8.25;2.08;;;19.50;98.70;;;;;;5069363;28;20808;-51
2022/05/13 14:35:34;;;;;;;7.50;1.88;;;19.30;99.40;;;;;;5037100;28;20086;-52
2022/05/13 14:38:04;;;;;;;6.72;1.95;;;19.40;99.90;;;;;;5081676;28;20059;-52
2022/05/13 14:40:47;;;;;;;7.57;1.85;;;19.50;99.80;;;;;;5089118;28;20139;-52
2022/05/13 14:43:22;;;;;;;6.47;2.00;;;19.50;99.40;;;;;;5048886;28;20071;-49
2022/05/13 14:45:50;;;;;;;7.65;1.95;;;19.60;99.80;;;;;;5080495;28;20056;-49
2022/05/13 14:48:30;;;;;;;5.00;1.95;;;19.40;99.90;;;;;;5079978;28;20131;-48
2022/05/13 14:51:16;;;;;;;9.65;1.90;;;19.10;99.20;;;;;;5099307;28;20186;-53